Flight Number: AVA3004 Duration: 1:45
Departure: Manaus Eduardo Gomes Intl (SBEG) at 23:45 Distance: 587.2 Nm
Arrival: Paramaribo (SMJP) at 01:30 Equipment: MD-81

Weather Information
Eduardo Gomes International, Brazil (SBEG) 03-02S 060-03W May 30, 2020 - 04:00 AM EDT / 2020.05.30 0800 UTC
Wind: from the NNW (330 degrees) at 2 MPH (2 KT):0
Visibility: greater than 7 mile(s):0
Sky conditions: partly cloudy Temperature: 71 F (22 C) Dew Point: 71 F (22 C) Relative Humidity: 100% Pressure (altimeter): 29.88 in. Hg (1012 hPa)
ob: SBEG 300800Z 33002KT 9999 FEW020 SCT080 22/22 Q1012 cycle: 8
Sunrise: 10:01 Sunset: 21:54 (UTC)

Johan A. Pengel, Suriname (SMJP) 05-27N 055-11W May 30, 2020 - 04:00 AM EDT / 2020.05.30 0800 UTC
Wind: Variable at 2 MPH (2 KT):0
Visibility: greater than 7 mile(s):0
Sky conditions: mostly clear Temperature: 75 F (24 C) Dew Point: 75 F (24 C) Relative Humidity: 100% Pressure (altimeter): 29.91 in. Hg (1013 hPa)
ob: SMJP 300800Z VRB02KT 9999 FEW006 24/24 Q1013 NOSIG cycle: 8
Sunrise: 09:28 Sunset: 21:48 (UTC)

TAF:2020/05/30 06:03 TAF TAF SMJP 300400Z 3006/3106 00000KT CAVOK TX31/3018Z TN23/3009Z PROB30 TEMPO 3008/3010 1500 BR SCT002 BECMG 3011/3013 08008KT SCT020 PROB30 TEMPO 3017/3021 5000 SHRA FEW015TCU SCT018 FM302200 05005KT CAVOK

This route has never been flown.

Route map